sensor_id;sensor_type;location;lat;lon;timestamp;P1;durP1;ratioP1;P2;durP2;ratioP2
64789;SDS011;51223;51.816;5.862;2023-05-07T00:01:33;2.78;;;1.77;;
64789;SDS011;51223;51.816;5.862;2023-05-07T00:03:58;3.42;;;2.17;;
64789;SDS011;51223;51.816;5.862;2023-05-07T00:06:24;1.88;;;1.52;;
64789;SDS011;51223;51.816;5.862;2023-05-07T00:08:51;4.80;;;2.00;;
64789;SDS011;51223;51.816;5.862;2023-05-07T00:11:16;2.47;;;1.63;;
64789;SDS011;51223;51.816;5.862;2023-05-07T00:13:42;3.85;;;2.13;;
64789;SDS011;51223;51.816;5.862;2023-05-07T00:16:07;2.50;;;2.05;;
64789;SDS011;51223;51.816;5.862;2023-05-07T00:18:33;6.93;;;2.40;;
64789;SDS011;51223;51.816;5.862;2023-05-07T00:20:59;4.65;;;1.80;;
64789;SDS011;51223;51.816;5.862;2023-05-07T00:23:24;3.15;;;1.60;;
64789;SDS011;51223;51.816;5.862;2023-05-07T00:25:50;2.83;;;2.03;;
64789;SDS011;51223;51.816;5.862;2023-05-07T00:28:15;3.63;;;2.40;;
64789;SDS011;51223;51.816;5.862;2023-05-07T00:30:41;3.05;;;2.15;;
64789;SDS011;51223;51.816;5.862;2023-05-07T00:33:06;4.25;;;2.45;;
64789;SDS011;51223;51.816;5.862;2023-05-07T00:35:32;3.40;;;2.15;;
64789;SDS011;51223;51.816;5.862;2023-05-07T00:37:58;5.03;;;2.30;;
64789;SDS011;51223;51.816;5.862;2023-05-07T00:40:23;2.72;;;2.25;;
64789;SDS011;51223;51.816;5.862;2023-05-07T00:42:49;5.38;;;2.22;;
64789;SDS011;51223;51.816;5.862;2023-05-07T00:45:15;4.32;;;1.85;;
64789;SDS011;51223;51.816;5.862;2023-05-07T00:47:41;3.25;;;2.38;;
64789;SDS011;51223;51.816;5.862;2023-05-07T00:50:07;3.45;;;2.22;;
64789;SDS011;51223;51.816;5.862;2023-05-07T00:52:33;4.47;;;2.60;;
64789;SDS011;51223;51.816;5.862;2023-05-07T00:55:00;5.88;;;3.70;;
64789;SDS011;51223;51.816;5.862;2023-05-07T00:57:27;7.18;;;3.13;;
64789;SDS011;51223;51.816;5.862;2023-05-07T00:59:53;4.82;;;3.35;;
64789;SDS011;51223;51.816;5.862;2023-05-07T01:02:19;4.65;;;2.70;;
64789;SDS011;51223;51.816;5.862;2023-05-07T01:04:44;4.88;;;3.15;;
64789;SDS011;51223;51.816;5.862;2023-05-07T01:07:10;3.63;;;2.30;;
64789;SDS011;51223;51.816;5.862;2023-05-07T01:09:36;4.22;;;2.75;;
64789;SDS011;51223;51.816;5.862;2023-05-07T01:12:02;3.95;;;2.38;;
64789;SDS011;51223;51.816;5.862;2023-05-07T01:14:28;4.93;;;2.65;;
64789;SDS011;51223;51.816;5.862;2023-05-07T01:16:54;6.00;;;3.47;;
64789;SDS011;51223;51.816;5.862;2023-05-07T01:19:20;5.35;;;2.95;;
64789;SDS011;51223;51.816;5.862;2023-05-07T01:21:47;4.70;;;3.55;;
64789;SDS011;51223;51.816;5.862;2023-05-07T01:24:13;5.95;;;3.35;;
64789;SDS011;51223;51.816;5.862;2023-05-07T01:26:39;6.45;;;4.07;;
64789;SDS011;51223;51.816;5.862;2023-05-07T01:29:05;6.82;;;3.30;;
64789;SDS011;51223;51.816;5.862;2023-05-07T01:31:31;6.18;;;3.55;;
64789;SDS011;51223;51.816;5.862;2023-05-07T01:33:57;4.97;;;3.80;;
64789;SDS011;51223;51.816;5.862;2023-05-07T01:36:24;4.75;;;2.92;;
64789;SDS011;51223;51.816;5.862;2023-05-07T01:38:52;6.95;;;3.67;;
64789;SDS011;51223;51.816;5.862;2023-05-07T01:41:18;5.22;;;3.05;;
64789;SDS011;51223;51.816;5.862;2023-05-07T01:43:45;5.20;;;3.78;;
64789;SDS011;51223;51.816;5.862;2023-05-07T01:46:11;5.40;;;3.22;;
64789;SDS011;51223;51.816;5.862;2023-05-07T01:48:37;5.38;;;3.63;;
64789;SDS011;51223;51.816;5.862;2023-05-07T01:51:04;6.00;;;3.53;;
64789;SDS011;51223;51.816;5.862;2023-05-07T01:53:34;5.05;;;3.53;;
64789;SDS011;51223;51.816;5.862;2023-05-07T01:56:01;4.28;;;2.72;;
64789;SDS011;51223;51.816;5.862;2023-05-07T01:58:26;4.40;;;3.47;;
64789;SDS011;51223;51.816;5.862;2023-05-07T02:00:52;4.00;;;3.17;;
64789;SDS011;51223;51.816;5.862;2023-05-07T02:03:17;5.53;;;3.63;;
64789;SDS011;51223;51.816;5.862;2023-05-07T02:05:43;6.15;;;3.97;;
64789;SDS011;51223;51.816;5.862;2023-05-07T02:08:09;5.93;;;3.85;;
64789;SDS011;51223;51.816;5.862;2023-05-07T02:10:34;4.55;;;3.20;;
64789;SDS011;51223;51.816;5.862;2023-05-07T02:13:01;6.20;;;3.30;;
64789;SDS011;51223;51.816;5.862;2023-05-07T02:15:27;6.60;;;3.70;;
64789;SDS011;51223;51.816;5.862;2023-05-07T02:20:25;5.05;;;3.50;;
64789;SDS011;51223;51.816;5.862;2023-05-07T02:22:50;7.57;;;3.85;;
64789;SDS011;51223;51.816;5.862;2023-05-07T02:25:16;6.72;;;3.47;;
64789;SDS011;51223;51.816;5.862;2023-05-07T02:27:41;4.05;;;2.65;;
64789;SDS011;51223;51.816;5.862;2023-05-07T02:30:07;6.65;;;3.30;;
64789;SDS011;51223;51.816;5.862;2023-05-07T02:32:33;5.93;;;3.85;;
64789;SDS011;51223;51.816;5.862;2023-05-07T02:34:58;5.50;;;3.35;;
64789;SDS011;51223;51.816;5.862;2023-05-07T02:37:24;5.15;;;3.63;;
64789;SDS011;51223;51.816;5.862;2023-05-07T02:39:50;5.40;;;3.70;;
64789;SDS011;51223;51.816;5.862;2023-05-07T02:42:16;4.55;;;3.13;;
64789;SDS011;51223;51.816;5.862;2023-05-07T02:44:41;6.55;;;3.67;;
64789;SDS011;51223;51.816;5.862;2023-05-07T02:47:07;6.47;;;4.13;;
64789;SDS011;51223;51.816;5.862;2023-05-07T02:49:33;5.45;;;3.92;;
64789;SDS011;51223;51.816;5.862;2023-05-07T02:51:59;5.88;;;3.83;;
64789;SDS011;51223;51.816;5.862;2023-05-07T02:54:25;7.30;;;3.80;;
64789;SDS011;51223;51.816;5.862;2023-05-07T02:56:50;6.53;;;4.10;;
64789;SDS011;51223;51.816;5.862;2023-05-07T02:59:16;5.78;;;3.80;;
64789;SDS011;51223;51.816;5.862;2023-05-07T03:01:41;7.10;;;4.20;;
64789;SDS011;51223;51.816;5.862;2023-05-07T03:04:09;6.80;;;3.72;;
64789;SDS011;51223;51.816;5.862;2023-05-07T03:06:35;6.70;;;3.92;;
64789;SDS011;51223;51.816;5.862;2023-05-07T03:09:00;6.93;;;4.22;;
64789;SDS011;51223;51.816;5.862;2023-05-07T03:11:26;5.82;;;3.80;;
64789;SDS011;51223;51.816;5.862;2023-05-07T03:13:51;5.72;;;4.25;;
64789;SDS011;51223;51.816;5.862;2023-05-07T03:16:17;6.55;;;4.13;;
64789;SDS011;51223;51.816;5.862;2023-05-07T03:18:42;6.50;;;3.95;;
64789;SDS011;51223;51.816;5.862;2023-05-07T03:21:08;4.18;;;3.20;;
64789;SDS011;51223;51.816;5.862;2023-05-07T03:23:34;2.80;;;2.55;;
64789;SDS011;51223;51.816;5.862;2023-05-07T03:25:59;4.22;;;3.20;;
64789;SDS011;51223;51.816;5.862;2023-05-07T03:28:25;4.28;;;3.25;;
64789;SDS011;51223;51.816;5.862;2023-05-07T03:30:50;5.78;;;3.47;;
64789;SDS011;51223;51.816;5.862;2023-05-07T03:33:16;5.32;;;3.80;;
64789;SDS011;51223;51.816;5.862;2023-05-07T03:35:41;3.60;;;2.78;;
64789;SDS011;51223;51.816;5.862;2023-05-07T03:38:07;5.43;;;3.53;;
64789;SDS011;51223;51.816;5.862;2023-05-07T03:40:32;5.22;;;3.95;;
64789;SDS011;51223;51.816;5.862;2023-05-07T03:42:59;5.50;;;3.75;;
64789;SDS011;51223;51.816;5.862;2023-05-07T03:45:25;5.13;;;3.60;;
64789;SDS011;51223;51.816;5.862;2023-05-07T03:47:51;7.28;;;4.28;;
64789;SDS011;51223;51.816;5.862;2023-05-07T03:50:16;5.60;;;4.47;;
64789;SDS011;51223;51.816;5.862;2023-05-07T03:52:42;6.68;;;4.70;;
64789;SDS011;51223;51.816;5.862;2023-05-07T03:55:08;5.80;;;3.88;;
64789;SDS011;51223;51.816;5.862;2023-05-07T03:57:33;8.35;;;4.00;;
64789;SDS011;51223;51.816;5.862;2023-05-07T03:59:59;13.32;;;4.53;;
64789;SDS011;51223;51.816;5.862;2023-05-07T04:02:24;6.93;;;4.53;;
64789;SDS011;51223;51.816;5.862;2023-05-07T04:04:50;6.05;;;4.53;;
64789;SDS011;51223;51.816;5.862;2023-05-07T04:07:15;6.05;;;4.38;;
64789;SDS011;51223;51.816;5.862;2023-05-07T04:09:41;5.13;;;3.58;;
64789;SDS011;51223;51.816;5.862;2023-05-07T04:12:07;5.63;;;4.32;;
64789;SDS011;51223;51.816;5.862;2023-05-07T04:14:32;12.65;;;4.75;;
64789;SDS011;51223;51.816;5.862;2023-05-07T04:16:58;7.85;;;5.53;;
64789;SDS011;51223;51.816;5.862;2023-05-07T04:19:24;9.48;;;5.63;;
64789;SDS011;51223;51.816;5.862;2023-05-07T04:21:50;8.82;;;5.45;;
64789;SDS011;51223;51.816;5.862;2023-05-07T04:24:16;5.70;;;3.78;;
64789;SDS011;51223;51.816;5.862;2023-05-07T04:26:41;8.40;;;4.30;;
64789;SDS011;51223;51.816;5.862;2023-05-07T04:29:07;8.77;;;4.70;;
64789;SDS011;51223;51.816;5.862;2023-05-07T04:31:32;7.80;;;4.72;;
64789;SDS011;51223;51.816;5.862;2023-05-07T04:33:58;7.32;;;5.18;;
64789;SDS011;51223;51.816;5.862;2023-05-07T04:36:24;5.75;;;4.28;;
64789;SDS011;51223;51.816;5.862;2023-05-07T04:38:53;5.15;;;3.60;;
64789;SDS011;51223;51.816;5.862;2023-05-07T04:41:19;7.13;;;4.82;;
64789;SDS011;51223;51.816;5.862;2023-05-07T04:43:44;8.50;;;5.22;;
64789;SDS011;51223;51.816;5.862;2023-05-07T04:46:10;5.78;;;4.20;;
64789;SDS011;51223;51.816;5.862;2023-05-07T04:48:36;7.85;;;5.50;;
64789;SDS011;51223;51.816;5.862;2023-05-07T04:51:02;6.57;;;4.68;;
64789;SDS011;51223;51.816;5.862;2023-05-07T04:53:27;5.38;;;3.90;;
64789;SDS011;51223;51.816;5.862;2023-05-07T04:55:56;8.45;;;5.28;;
64789;SDS011;51223;51.816;5.862;2023-05-07T04:58:25;7.75;;;4.80;;
64789;SDS011;51223;51.816;5.862;2023-05-07T05:00:50;7.55;;;5.40;;
64789;SDS011;51223;51.816;5.862;2023-05-07T05:03:16;8.55;;;4.53;;
64789;SDS011;51223;51.816;5.862;2023-05-07T05:05:41;6.07;;;3.63;;
64789;SDS011;51223;51.816;5.862;2023-05-07T05:08:07;9.32;;;5.05;;
64789;SDS011;51223;51.816;5.862;2023-05-07T05:10:33;7.03;;;5.00;;
64789;SDS011;51223;51.816;5.862;2023-05-07T05:12:58;7.80;;;5.63;;
64789;SDS011;51223;51.816;5.862;2023-05-07T05:15:24;8.13;;;5.80;;
64789;SDS011;51223;51.816;5.862;2023-05-07T05:17:49;8.95;;;4.50;;
64789;SDS011;51223;51.816;5.862;2023-05-07T05:20:15;7.20;;;5.00;;
64789;SDS011;51223;51.816;5.862;2023-05-07T05:22:41;4.15;;;3.20;;
64789;SDS011;51223;51.816;5.862;2023-05-07T05:25:07;17.70;;;4.50;;
64789;SDS011;51223;51.816;5.862;2023-05-07T05:27:33;5.47;;;4.10;;
64789;SDS011;51223;51.816;5.862;2023-05-07T05:29:58;7.05;;;5.05;;
64789;SDS011;51223;51.816;5.862;2023-05-07T05:32:24;5.70;;;4.05;;
64789;SDS011;51223;51.816;5.862;2023-05-07T05:34:49;11.27;;;5.47;;
64789;SDS011;51223;51.816;5.862;2023-05-07T05:37:15;3.92;;;2.63;;
64789;SDS011;51223;51.816;5.862;2023-05-07T05:39:41;5.65;;;3.92;;
64789;SDS011;51223;51.816;5.862;2023-05-07T05:42:07;7.28;;;4.65;;
64789;SDS011;51223;51.816;5.862;2023-05-07T05:44:33;6.53;;;5.00;;
64789;SDS011;51223;51.816;5.862;2023-05-07T05:46:58;6.85;;;5.07;;
64789;SDS011;51223;51.816;5.862;2023-05-07T05:49:24;8.38;;;4.68;;
64789;SDS011;51223;51.816;5.862;2023-05-07T05:51:50;4.70;;;3.42;;
64789;SDS011;51223;51.816;5.862;2023-05-07T05:54:15;6.63;;;5.03;;
64789;SDS011;51223;51.816;5.862;2023-05-07T05:56:41;6.90;;;5.00;;
64789;SDS011;51223;51.816;5.862;2023-05-07T05:59:07;6.15;;;4.45;;
64789;SDS011;51223;51.816;5.862;2023-05-07T06:01:33;9.75;;;4.88;;
64789;SDS011;51223;51.816;5.862;2023-05-07T06:03:58;6.78;;;5.25;;
64789;SDS011;51223;51.816;5.862;2023-05-07T06:06:24;7.10;;;4.60;;
64789;SDS011;51223;51.816;5.862;2023-05-07T06:08:49;6.20;;;4.43;;
64789;SDS011;51223;51.816;5.862;2023-05-07T06:11:15;7.10;;;3.67;;
64789;SDS011;51223;51.816;5.862;2023-05-07T06:13:40;5.95;;;4.70;;
64789;SDS011;51223;51.816;5.862;2023-05-07T06:16:06;9.20;;;5.78;;
64789;SDS011;51223;51.816;5.862;2023-05-07T06:18:32;5.45;;;3.67;;
64789;SDS011;51223;51.816;5.862;2023-05-07T06:20:57;7.90;;;4.97;;
64789;SDS011;51223;51.816;5.862;2023-05-07T06:23:23;5.93;;;3.05;;
64789;SDS011;51223;51.816;5.862;2023-05-07T06:25:49;4.18;;;3.55;;
64789;SDS011;51223;51.816;5.862;2023-05-07T06:28:15;2.60;;;2.15;;
64789;SDS011;51223;51.816;5.862;2023-05-07T06:30:40;4.57;;;3.30;;
64789;SDS011;51223;51.816;5.862;2023-05-07T06:33:06;4.15;;;2.95;;
64789;SDS011;51223;51.816;5.862;2023-05-07T06:35:32;4.05;;;3.65;;
64789;SDS011;51223;51.816;5.862;2023-05-07T06:37:57;5.50;;;3.28;;
64789;SDS011;51223;51.816;5.862;2023-05-07T06:40:23;3.80;;;3.13;;
64789;SDS011;51223;51.816;5.862;2023-05-07T06:42:48;8.43;;;3.67;;
64789;SDS011;51223;51.816;5.862;2023-05-07T06:45:14;4.22;;;2.80;;
64789;SDS011;51223;51.816;5.862;2023-05-07T06:47:39;4.93;;;3.75;;
64789;SDS011;51223;51.816;5.862;2023-05-07T06:50:05;4.97;;;4.10;;
64789;SDS011;51223;51.816;5.862;2023-05-07T06:52:31;9.30;;;3.25;;
64789;SDS011;51223;51.816;5.862;2023-05-07T06:54:57;7.15;;;3.60;;
64789;SDS011;51223;51.816;5.862;2023-05-07T06:57:23;5.38;;;4.00;;
64789;SDS011;51223;51.816;5.862;2023-05-07T06:59:49;3.13;;;2.60;;
64789;SDS011;51223;51.816;5.862;2023-05-07T07:02:14;3.60;;;3.03;;
64789;SDS011;51223;51.816;5.862;2023-05-07T07:04:40;4.95;;;3.42;;
64789;SDS011;51223;51.816;5.862;2023-05-07T07:07:07;4.80;;;3.38;;
64789;SDS011;51223;51.816;5.862;2023-05-07T07:09:32;4.43;;;3.45;;
64789;SDS011;51223;51.816;5.862;2023-05-07T07:11:58;4.55;;;3.47;;
64789;SDS011;51223;51.816;5.862;2023-05-07T07:14:23;4.90;;;3.40;;
64789;SDS011;51223;51.816;5.862;2023-05-07T07:16:49;10.93;;;3.92;;
64789;SDS011;51223;51.816;5.862;2023-05-07T07:19:15;6.05;;;3.97;;
64789;SDS011;51223;51.816;5.862;2023-05-07T07:21:41;3.45;;;2.72;;
64789;SDS011;51223;51.816;5.862;2023-05-07T07:24:06;6.85;;;3.90;;
64789;SDS011;51223;51.816;5.862;2023-05-07T07:26:32;5.10;;;3.10;;
64789;SDS011;51223;51.816;5.862;2023-05-07T07:28:57;5.53;;;3.70;;
64789;SDS011;51223;51.816;5.862;2023-05-07T07:31:23;6.40;;;4.10;;
64789;SDS011;51223;51.816;5.862;2023-05-07T07:33:49;5.22;;;3.97;;
64789;SDS011;51223;51.816;5.862;2023-05-07T07:36:15;8.40;;;3.70;;
64789;SDS011;51223;51.816;5.862;2023-05-07T07:38:41;5.32;;;4.00;;
64789;SDS011;51223;51.816;5.862;2023-05-07T07:41:09;4.28;;;3.13;;
64789;SDS011;51223;51.816;5.862;2023-05-07T07:43:35;3.25;;;2.55;;
64789;SDS011;51223;51.816;5.862;2023-05-07T07:46:01;6.15;;;4.10;;
64789;SDS011;51223;51.816;5.862;2023-05-07T07:48:26;11.00;;;2.58;;
64789;SDS011;51223;51.816;5.862;2023-05-07T07:50:52;6.93;;;4.28;;
64789;SDS011;51223;51.816;5.862;2023-05-07T07:53:17;7.93;;;4.63;;
64789;SDS011;51223;51.816;5.862;2023-05-07T07:55:43;7.18;;;4.88;;
64789;SDS011;51223;51.816;5.862;2023-05-07T07:58:09;5.10;;;3.75;;
64789;SDS011;51223;51.816;5.862;2023-05-07T08:00:35;5.32;;;4.18;;
64789;SDS011;51223;51.816;5.862;2023-05-07T08:03:01;7.47;;;4.18;;
64789;SDS011;51223;51.816;5.862;2023-05-07T08:05:28;5.43;;;3.60;;
64789;SDS011;51223;51.816;5.862;2023-05-07T08:07:54;6.55;;;4.22;;
64789;SDS011;51223;51.816;5.862;2023-05-07T08:10:21;7.03;;;5.30;;
64789;SDS011;51223;51.816;5.862;2023-05-07T08:12:50;7.05;;;4.07;;
64789;SDS011;51223;51.816;5.862;2023-05-07T08:15:15;6.93;;;4.43;;
64789;SDS011;51223;51.816;5.862;2023-05-07T08:17:41;5.63;;;4.32;;
64789;SDS011;51223;51.816;5.862;2023-05-07T08:20:07;8.70;;;5.60;;
64789;SDS011;51223;51.816;5.862;2023-05-07T08:22:34;9.15;;;4.65;;
64789;SDS011;51223;51.816;5.862;2023-05-07T08:24:59;5.28;;;3.53;;
64789;SDS011;51223;51.816;5.862;2023-05-07T08:27:25;7.53;;;4.65;;
64789;SDS011;51223;51.816;5.862;2023-05-07T08:29:51;5.00;;;3.70;;
64789;SDS011;51223;51.816;5.862;2023-05-07T08:32:16;4.78;;;3.80;;
64789;SDS011;51223;51.816;5.862;2023-05-07T08:34:42;5.10;;;3.35;;
64789;SDS011;51223;51.816;5.862;2023-05-07T08:37:07;6.20;;;5.07;;
64789;SDS011;51223;51.816;5.862;2023-05-07T08:39:33;2.15;;;1.98;;
64789;SDS011;51223;51.816;5.862;2023-05-07T08:42:00;7.40;;;4.25;;
64789;SDS011;51223;51.816;5.862;2023-05-07T08:44:26;5.18;;;3.50;;
64789;SDS011;51223;51.816;5.862;2023-05-07T08:46:52;6.97;;;4.05;;
64789;SDS011;51223;51.816;5.862;2023-05-07T08:49:19;4.28;;;3.20;;
64789;SDS011;51223;51.816;5.862;2023-05-07T08:51:45;7.60;;;4.20;;
64789;SDS011;51223;51.816;5.862;2023-05-07T08:54:11;3.78;;;2.83;;
64789;SDS011;51223;51.816;5.862;2023-05-07T08:56:37;8.88;;;4.50;;
64789;SDS011;51223;51.816;5.862;2023-05-07T08:59:05;6.90;;;4.40;;
64789;SDS011;51223;51.816;5.862;2023-05-07T09:01:30;5.95;;;3.97;;
64789;SDS011;51223;51.816;5.862;2023-05-07T09:03:57;6.38;;;4.10;;
64789;SDS011;51223;51.816;5.862;2023-05-07T09:06:22;9.15;;;4.35;;
64789;SDS011;51223;51.816;5.862;2023-05-07T09:08:51;5.47;;;3.40;;
64789;SDS011;51223;51.816;5.862;2023-05-07T09:11:19;7.00;;;4.57;;
64789;SDS011;51223;51.816;5.862;2023-05-07T09:13:46;5.10;;;3.53;;
64789;SDS011;51223;51.816;5.862;2023-05-07T09:16:12;6.03;;;4.30;;
64789;SDS011;51223;51.816;5.862;2023-05-07T09:18:41;4.60;;;3.47;;
64789;SDS011;51223;51.816;5.862;2023-05-07T09:21:09;6.07;;;4.53;;
64789;SDS011;51223;51.816;5.862;2023-05-07T09:23:35;7.68;;;3.85;;
64789;SDS011;51223;51.816;5.862;2023-05-07T09:26:00;5.75;;;4.20;;
64789;SDS011;51223;51.816;5.862;2023-05-07T09:28:27;7.18;;;3.55;;
64789;SDS011;51223;51.816;5.862;2023-05-07T09:30:52;3.38;;;2.67;;
64789;SDS011;51223;51.816;5.862;2023-05-07T09:33:18;2.90;;;2.25;;
64789;SDS011;51223;51.816;5.862;2023-05-07T09:35:43;4.82;;;3.63;;
64789;SDS011;51223;51.816;5.862;2023-05-07T09:38:09;4.38;;;3.03;;
64789;SDS011;51223;51.816;5.862;2023-05-07T09:40:35;3.58;;;2.80;;
64789;SDS011;51223;51.816;5.862;2023-05-07T09:43:10;5.13;;;3.08;;
64789;SDS011;51223;51.816;5.862;2023-05-07T09:45:36;5.82;;;1.58;;
64789;SDS011;51223;51.816;5.862;2023-05-07T09:48:02;4.35;;;3.13;;
64789;SDS011;51223;51.816;5.862;2023-05-07T09:50:32;5.53;;;3.80;;
64789;SDS011;51223;51.816;5.862;2023-05-07T09:52:58;4.53;;;3.25;;
64789;SDS011;51223;51.816;5.862;2023-05-07T09:55:23;5.05;;;3.28;;
64789;SDS011;51223;51.816;5.862;2023-05-07T09:57:50;5.53;;;3.28;;
64789;SDS011;51223;51.816;5.862;2023-05-07T10:00:17;7.10;;;3.20;;
64789;SDS011;51223;51.816;5.862;2023-05-07T10:02:45;4.13;;;3.03;;
64789;SDS011;51223;51.816;5.862;2023-05-07T10:05:16;5.72;;;3.63;;
64789;SDS011;51223;51.816;5.862;2023-05-07T10:07:42;2.88;;;1.92;;
64789;SDS011;51223;51.816;5.862;2023-05-07T10:10:07;4.63;;;3.45;;
64789;SDS011;51223;51.816;5.862;2023-05-07T10:12:33;4.28;;;2.80;;
64789;SDS011;51223;51.816;5.862;2023-05-07T10:15:10;4.13;;;3.05;;
64789;SDS011;51223;51.816;5.862;2023-05-07T10:17:36;5.93;;;2.85;;
64789;SDS011;51223;51.816;5.862;2023-05-07T10:20:02;2.50;;;2.08;;
64789;SDS011;51223;51.816;5.862;2023-05-07T10:22:28;5.82;;;4.22;;
64789;SDS011;51223;51.816;5.862;2023-05-07T10:24:55;9.25;;;3.30;;
64789;SDS011;51223;51.816;5.862;2023-05-07T10:27:21;11.05;;;2.85;;
64789;SDS011;51223;51.816;5.862;2023-05-07T10:29:58;6.60;;;3.60;;
64789;SDS011;51223;51.816;5.862;2023-05-07T10:35:13;4.55;;;3.10;;
64789;SDS011;51223;51.816;5.862;2023-05-07T10:37:39;3.80;;;2.30;;
64789;SDS011;51223;51.816;5.862;2023-05-07T10:40:05;7.03;;;2.30;;
64789;SDS011;51223;51.816;5.862;2023-05-07T10:42:32;4.57;;;2.83;;
64789;SDS011;51223;51.816;5.862;2023-05-07T10:44:58;4.00;;;3.05;;
64789;SDS011;51223;51.816;5.862;2023-05-07T10:47:36;3.42;;;2.60;;
64789;SDS011;51223;51.816;5.862;2023-05-07T10:50:21;2.88;;;2.08;;
64789;SDS011;51223;51.816;5.862;2023-05-07T10:53:00;4.97;;;2.38;;
64789;SDS011;51223;51.816;5.862;2023-05-07T10:55:33;2.55;;;2.05;;
64789;SDS011;51223;51.816;5.862;2023-05-07T10:58:10;3.30;;;2.00;;
64789;SDS011;51223;51.816;5.862;2023-05-07T11:00:44;7.70;;;3.00;;
64789;SDS011;51223;51.816;5.862;2023-05-07T11:03:09;3.65;;;2.55;;
64789;SDS011;51223;51.816;5.862;2023-05-07T11:05:36;5.38;;;2.20;;
64789;SDS011;51223;51.816;5.862;2023-05-07T11:08:02;6.80;;;2.33;;
64789;SDS011;51223;51.816;5.862;2023-05-07T11:13:12;4.05;;;2.92;;
64789;SDS011;51223;51.816;5.862;2023-05-07T11:15:38;5.07;;;3.58;;
64789;SDS011;51223;51.816;5.862;2023-05-07T11:18:04;4.07;;;2.55;;
64789;SDS011;51223;51.816;5.862;2023-05-07T11:20:46;5.50;;;3.05;;
64789;SDS011;51223;51.816;5.862;2023-05-07T11:28:48;4.30;;;3.13;;
64789;SDS011;51223;51.816;5.862;2023-05-07T11:31:14;3.80;;;2.78;;
64789;SDS011;51223;51.816;5.862;2023-05-07T11:33:45;5.15;;;3.25;;
64789;SDS011;51223;51.816;5.862;2023-05-07T11:36:11;4.90;;;2.90;;
64789;SDS011;51223;51.816;5.862;2023-05-07T11:38:37;6.15;;;2.45;;
64789;SDS011;51223;51.816;5.862;2023-05-07T11:41:02;6.22;;;3.33;;
64789;SDS011;51223;51.816;5.862;2023-05-07T11:43:33;7.47;;;3.55;;
64789;SDS011;51223;51.816;5.862;2023-05-07T11:46:10;4.88;;;2.40;;
64789;SDS011;51223;51.816;5.862;2023-05-07T11:48:35;4.55;;;3.25;;
64789;SDS011;51223;51.816;5.862;2023-05-07T11:51:02;4.35;;;2.47;;
64789;SDS011;51223;51.816;5.862;2023-05-07T11:53:28;4.20;;;3.33;;
64789;SDS011;51223;51.816;5.862;2023-05-07T11:56:00;3.88;;;3.05;;
64789;SDS011;51223;51.816;5.862;2023-05-07T11:58:25;4.22;;;2.80;;
64789;SDS011;51223;51.816;5.862;2023-05-07T12:00:52;4.43;;;2.08;;
64789;SDS011;51223;51.816;5.862;2023-05-07T12:03:17;4.25;;;2.60;;
64789;SDS011;51223;51.816;5.862;2023-05-07T12:05:44;3.50;;;2.67;;
64789;SDS011;51223;51.816;5.862;2023-05-07T12:08:13;3.05;;;2.35;;
64789;SDS011;51223;51.816;5.862;2023-05-07T12:10:42;5.18;;;3.70;;
64789;SDS011;51223;51.816;5.862;2023-05-07T12:13:20;4.05;;;2.60;;
64789;SDS011;51223;51.816;5.862;2023-05-07T12:15:46;5.60;;;3.88;;
64789;SDS011;51223;51.816;5.862;2023-05-07T12:18:12;5.00;;;3.30;;
64789;SDS011;51223;51.816;5.862;2023-05-07T12:20:37;4.68;;;3.63;;
64789;SDS011;51223;51.816;5.862;2023-05-07T12:23:03;3.97;;;3.35;;
64789;SDS011;51223;51.816;5.862;2023-05-07T12:25:30;4.30;;;2.70;;
64789;SDS011;51223;51.816;5.862;2023-05-07T12:27:56;4.57;;;2.88;;
64789;SDS011;51223;51.816;5.862;2023-05-07T12:30:24;5.28;;;3.05;;
64789;SDS011;51223;51.816;5.862;2023-05-07T12:32:54;2.80;;;2.25;;
64789;SDS011;51223;51.816;5.862;2023-05-07T12:35:26;4.13;;;1.98;;
64789;SDS011;51223;51.816;5.862;2023-05-07T12:37:55;2.60;;;2.15;;
64789;SDS011;51223;51.816;5.862;2023-05-07T12:40:20;4.22;;;2.70;;
64789;SDS011;51223;51.816;5.862;2023-05-07T12:42:46;3.00;;;2.38;;
64789;SDS011;51223;51.816;5.862;2023-05-07T12:45:12;3.45;;;2.10;;
64789;SDS011;51223;51.816;5.862;2023-05-07T12:47:38;5.15;;;3.00;;
64789;SDS011;51223;51.816;5.862;2023-05-07T12:50:06;2.40;;;2.00;;
64789;SDS011;51223;51.816;5.862;2023-05-07T12:52:32;2.88;;;2.30;;
64789;SDS011;51223;51.816;5.862;2023-05-07T12:55:04;12.60;;;3.28;;
64789;SDS011;51223;51.816;5.862;2023-05-07T12:57:29;3.72;;;2.70;;
64789;SDS011;51223;51.816;5.862;2023-05-07T12:59:57;3.72;;;2.83;;
64789;SDS011;51223;51.816;5.862;2023-05-07T13:02:31;5.22;;;3.03;;
64789;SDS011;51223;51.816;5.862;2023-05-07T13:04:57;3.78;;;2.83;;
64789;SDS011;51223;51.816;5.862;2023-05-07T13:07:24;6.60;;;2.88;;
64789;SDS011;51223;51.816;5.862;2023-05-07T13:09:50;4.18;;;2.10;;
64789;SDS011;51223;51.816;5.862;2023-05-07T13:12:15;3.63;;;2.05;;
64789;SDS011;51223;51.816;5.862;2023-05-07T13:14:41;5.30;;;2.60;;
64789;SDS011;51223;51.816;5.862;2023-05-07T13:17:06;2.42;;;2.10;;
64789;SDS011;51223;51.816;5.862;2023-05-07T13:19:32;2.00;;;1.77;;
64789;SDS011;51223;51.816;5.862;2023-05-07T13:21:58;4.32;;;2.15;;
64789;SDS011;51223;51.816;5.862;2023-05-07T13:24:23;7.90;;;2.33;;
64789;SDS011;51223;51.816;5.862;2023-05-07T13:26:49;2.67;;;2.05;;
64789;SDS011;51223;51.816;5.862;2023-05-07T13:29:15;6.07;;;1.63;;
64789;SDS011;51223;51.816;5.862;2023-05-07T13:31:41;3.70;;;2.30;;
64789;SDS011;51223;51.816;5.862;2023-05-07T13:34:09;7.32;;;2.75;;
64789;SDS011;51223;51.816;5.862;2023-05-07T13:36:35;6.40;;;1.70;;
64789;SDS011;51223;51.816;5.862;2023-05-07T13:39:03;2.97;;;2.20;;
64789;SDS011;51223;51.816;5.862;2023-05-07T13:41:29;4.22;;;2.22;;
64789;SDS011;51223;51.816;5.862;2023-05-07T13:43:55;3.33;;;2.05;;
64789;SDS011;51223;51.816;5.862;2023-05-07T13:46:21;2.88;;;2.00;;
64789;SDS011;51223;51.816;5.862;2023-05-07T13:48:47;4.55;;;3.13;;
64789;SDS011;51223;51.816;5.862;2023-05-07T13:51:12;3.33;;;1.75;;
64789;SDS011;51223;51.816;5.862;2023-05-07T13:53:38;3.53;;;2.25;;
64789;SDS011;51223;51.816;5.862;2023-05-07T13:56:04;2.88;;;2.13;;
64789;SDS011;51223;51.816;5.862;2023-05-07T13:58:30;4.32;;;1.80;;
64789;SDS011;51223;51.816;5.862;2023-05-07T14:00:55;2.75;;;2.17;;
64789;SDS011;51223;51.816;5.862;2023-05-07T14:03:21;3.03;;;1.95;;
64789;SDS011;51223;51.816;5.862;2023-05-07T14:05:47;2.70;;;1.95;;
64789;SDS011;51223;51.816;5.862;2023-05-07T14:08:12;4.90;;;1.85;;
64789;SDS011;51223;51.816;5.862;2023-05-07T14:10:39;5.68;;;1.60;;
64789;SDS011;51223;51.816;5.862;2023-05-07T14:13:05;1.83;;;1.30;;
64789;SDS011;51223;51.816;5.862;2023-05-07T14:15:30;4.80;;;1.90;;
64789;SDS011;51223;51.816;5.862;2023-05-07T14:17:58;7.15;;;1.98;;
64789;SDS011;51223;51.816;5.862;2023-05-07T14:20:24;1.52;;;1.35;;
64789;SDS011;51223;51.816;5.862;2023-05-07T14:22:50;6.47;;;2.10;;
64789;SDS011;51223;51.816;5.862;2023-05-07T14:25:16;4.03;;;2.78;;
64789;SDS011;51223;51.816;5.862;2023-05-07T14:27:41;9.70;;;5.57;;
64789;SDS011;51223;51.816;5.862;2023-05-07T14:30:07;10.00;;;4.63;;
64789;SDS011;51223;51.816;5.862;2023-05-07T14:32:33;6.28;;;3.42;;
64789;SDS011;51223;51.816;5.862;2023-05-07T14:34:59;2.47;;;1.60;;
64789;SDS011;51223;51.816;5.862;2023-05-07T14:37:24;1.52;;;0.60;;
64789;SDS011;51223;51.816;5.862;2023-05-07T14:39:50;0.28;;;0.28;;
64789;SDS011;51223;51.816;5.862;2023-05-07T14:42:16;0.45;;;0.45;;
64789;SDS011;51223;51.816;5.862;2023-05-07T14:44:41;0.40;;;0.40;;
64789;SDS011;51223;51.816;5.862;2023-05-07T14:47:07;0.35;;;0.35;;
64789;SDS011;51223;51.816;5.862;2023-05-07T14:49:33;1.50;;;0.40;;
64789;SDS011;51223;51.816;5.862;2023-05-07T14:51:59;0.93;;;0.43;;
64789;SDS011;51223;51.816;5.862;2023-05-07T14:54:25;0.40;;;0.40;;
64789;SDS011;51223;51.816;5.862;2023-05-07T14:56:51;0.85;;;0.50;;